Time;durP1;ratioP1;P1;durP2;ratioP2;P2;SDS_P1;SDS_P2;PMS_P1;PMS_P2;Temp;Humidity;BMP_temperature;BMP_pressure;BME280_temperature;BME280_humidity;BME280_pressure;Samples;Min_cycle;Max_cycle;Signal;HPM_P1;HPM_P2
2020/12/21 00:00:38;;;;;;;11.90;6.00;;;;;;;5.95;100.00;101586.31;1799712;78;936557;-87
2020/12/21 00:03:07;;;;;;;12.33;5.60;;;;;;;6.04;100.00;101582.14;1787946;77;936955;-86
2020/12/21 00:05:37;;;;;;;11.77;5.90;;;;;;;5.90;100.00;101582.08;1799807;78;936728;-86
2020/12/21 00:08:07;;;;;;;14.95;6.15;;;;;;;5.96;100.00;101575.59;1787961;77;936560;-86
2020/12/21 00:10:37;;;;;;;12.90;6.00;;;;;;;6.03;100.00;101571.38;1799676;78;936997;-85
2020/12/21 00:13:07;;;;;;;13.80;5.40;;;;;;;6.04;100.00;101582.67;1787782;77;936689;-86
2020/12/21 00:15:37;;;;;;;10.37;5.30;;;;;;;6.08;100.00;101583.88;1799556;78;936890;-85
2020/12/21 00:18:07;;;;;;;11.65;5.25;;;;;;;5.98;100.00;101585.87;1787785;77;936564;-85
2020/12/21 00:20:36;;;;;;;9.50;5.30;;;;;;;5.97;100.00;101588.85;1799504;78;936626;-85
2020/12/21 00:23:06;;;;;;;8.27;4.87;;;;;;;5.99;100.00;101582.01;1787805;78;938956;-85
2020/12/21 00:25:36;;;;;;;8.40;4.90;;;;;;;6.00;100.00;101585.08;1799591;78;933368;-86
2020/12/21 00:28:06;;;;;;;10.25;4.50;;;;;;;6.19;100.00;101576.18;1787856;77;934518;-84
2020/12/21 00:30:38;;;;;;;9.73;4.60;;;;;;;6.06;100.00;101573.11;1799592;77;936563;-85
2020/12/21 00:33:08;;;;;;;10.10;5.30;;;;;;;6.08;100.00;101565.42;1787840;78;934540;-85
2020/12/21 00:35:38;;;;;;;8.63;4.90;;;;;;;6.00;100.00;101572.67;1799589;78;936655;-84
2020/12/21 00:38:08;;;;;;;8.67;4.90;;;;;;;6.03;100.00;101566.70;1787817;78;934937;-84
2020/12/21 00:40:37;;;;;;;5.85;4.42;;;;;;;5.97;100.00;101562.66;1799509;78;934530;-84
2020/12/21 00:43:07;;;;;;;8.00;4.53;;;;;;;6.00;100.00;101561.64;1787908;78;934663;-85
2020/12/21 00:45:37;;;;;;;12.83;5.27;;;;;;;6.13;100.00;101554.52;1799628;78;934618;-85
2020/12/21 00:48:07;;;;;;;8.33;4.10;;;;;;;6.20;100.00;101564.08;1787895;78;936761;-85
2020/12/21 00:50:37;;;;;;;11.87;4.53;;;;;;;6.31;100.00;101570.13;1799596;77;934493;-84
2020/12/21 00:53:07;;;;;;;10.65;4.58;;;;;;;6.34;100.00;101569.10;1787790;78;936790;-84
2020/12/21 00:55:36;;;;;;;7.23;3.20;;;;;;;6.37;100.00;101565.85;1799514;77;936610;-84
2020/12/21 00:58:06;;;;;;;8.03;3.50;;;;;;;6.48;100.00;101560.58;1787953;78;934738;-84
2020/12/21 01:00:36;;;;;;;10.30;3.87;;;;;;;6.48;100.00;101555.91;1799664;78;934728;-85
2020/12/21 01:03:06;;;;;;;10.28;4.17;;;;;;;6.55;100.00;101553.00;1787750;78;936921;-85
2020/12/21 01:05:36;;;;;;;9.00;3.83;;;;;;;6.61;100.00;101551.52;1799545;78;936621;-84
2020/12/21 01:08:06;;;;;;;7.67;3.35;;;;;;;6.65;100.00;101551.86;1787780;77;944318;-85
2020/12/21 01:10:35;;;;;;;8.37;3.23;;;;;;;6.58;100.00;101554.77;1799610;77;934445;-85
2020/12/21 01:13:05;;;;;;;8.65;3.30;;;;;;;6.67;100.00;101556.08;1787848;77;934543;-84
2020/12/21 01:15:35;;;;;;;8.53;3.80;;;;;;;6.56;100.00;101551.93;1799548;77;934610;-85
2020/12/21 01:18:05;;;;;;;7.70;3.65;;;;;;;6.56;100.00;101546.41;1787693;77;938449;-86
2020/12/21 01:20:35;;;;;;;6.87;3.30;;;;;;;6.50;100.00;101538.58;1799685;77;934443;-86
2020/12/21 01:23:05;;;;;;;8.23;3.52;;;;;;;6.45;100.00;101551.41;1787796;78;934512;-84
2020/12/21 01:25:35;;;;;;;7.50;3.20;;;;;;;6.45;100.00;101548.12;1799585;78;933440;-85
2020/12/21 01:28:05;;;;;;;7.77;3.90;;;;;;;6.46;100.00;101537.35;1787883;77;934884;-84
2020/12/21 01:30:35;;;;;;;11.27;3.80;;;;;;;6.50;100.00;101535.81;1799742;77;934581;-84
2020/12/21 01:33:05;;;;;;;8.60;3.00;;;;;;;6.51;100.00;101535.25;1787846;77;936704;-84
2020/12/21 01:35:34;;;;;;;9.47;3.67;;;;;;;6.57;100.00;101526.02;1799722;77;933507;-85
2020/12/21 01:38:04;;;;;;;7.90;2.90;;;;;;;6.62;100.00;101526.13;1787916;78;933394;-84
2020/12/21 01:40:34;;;;;;;7.00;3.30;;;;;;;6.69;100.00;101512.48;1799573;77;934466;-84
2020/12/21 01:43:04;;;;;;;9.75;3.60;;;;;;;6.76;100.00;101508.23;1787868;78;934761;-83
2020/12/21 01:45:34;;;;;;;9.93;3.20;;;;;;;6.77;100.00;101517.63;1799690;77;934562;-85
2020/12/21 01:48:04;;;;;;;8.60;2.93;;;;;;;6.85;100.00;101515.86;1788028;77;933503;-85
2020/12/21 01:50:33;;;;;;;8.47;3.30;;;;;;;6.81;100.00;101509.69;1799647;78;934565;-84
2020/12/21 01:53:09;;;;;;;7.58;2.80;;;;;;;6.83;100.00;101508.92;1787882;77;934478;-85
2020/12/21 01:55:37;;;;;;;7.87;2.90;;;;;;;6.91;100.00;101509.06;1798350;77;934509;-85
2020/12/21 01:58:07;;;;;;;8.68;3.62;;;;;;;6.88;100.00;101516.47;1787915;78;934504;-84
2020/12/21 02:00:37;;;;;;;6.47;2.77;;;;;;;6.74;100.00;101515.91;1799697;77;934586;-84
2020/12/21 02:03:08;;;;;;;3.55;2.67;;;;;;;6.83;100.00;101508.37;1788111;78;934783;-85
2020/12/21 02:05:39;;;;;;;8.70;3.20;;;;;;;6.87;100.00;101496.30;1799757;78;932642;-85
2020/12/21 02:08:09;;;;;;;7.58;3.20;;;;;;;6.90;100.00;101502.70;1788129;77;934486;-85
2020/12/21 02:10:39;;;;;;;7.57;3.03;;;;;;;7.02;100.00;101492.45;1799800;77;932507;-85
2020/12/21 02:13:08;;;;;;;10.50;2.92;;;;;;;7.08;100.00;101492.86;1788143;78;934481;-85
2020/12/21 02:15:38;;;;;;;10.53;3.40;;;;;;;7.23;100.00;101494.52;1799836;77;934610;-85
2020/12/21 02:18:08;;;;;;;12.25;2.98;;;;;;;7.26;100.00;101487.14;1788478;77;936995;-84
2020/12/21 02:20:38;;;;;;;6.73;2.97;;;;;;;7.37;100.00;101479.02;1799861;78;936671;-85
2020/12/21 02:23:08;;;;;;;6.28;2.77;;;;;;;7.53;100.00;101469.36;1787403;78;933462;-85
2020/12/21 02:25:38;;;;;;;10.03;3.13;;;;;;;7.63;100.00;101474.23;1809623;77;934049;-85
2020/12/21 02:28:08;;;;;;;10.10;3.33;;;;;;;7.68;100.00;101466.87;1787876;78;935430;-85
2020/12/21 02:30:37;;;;;;;8.13;2.70;;;;;;;7.71;100.00;101460.83;1799633;78;935599;-84
2020/12/21 02:33:08;;;;;;;7.00;2.72;;;;;;;7.90;100.00;101457.27;1787728;77;933485;-84
2020/12/21 02:35:38;;;;;;;11.40;2.47;;;;;;;7.77;100.00;101448.77;1799651;77;933878;-84
2020/12/21 02:38:07;;;;;;;8.98;1.95;;;;;;;7.97;100.00;101446.02;1787859;78;936140;-84
2020/12/21 02:40:39;;;;;;;9.10;2.60;;;;;;;8.00;100.00;101449.69;1799686;77;933397;-84
2020/12/21 02:43:08;;;;;;;6.13;2.17;;;;;;;8.16;100.00;101444.66;1787978;78;933422;-85
2020/12/21 02:45:38;;;;;;;14.40;2.40;;;;;;;8.32;100.00;101453.49;1799615;78;931713;-86
2020/12/21 02:48:08;;;;;;;6.45;2.20;;;;;;;8.26;100.00;101445.36;1787932;77;935636;-87
2020/12/21 02:50:38;;;;;;;9.93;2.53;;;;;;;8.40;100.00;101441.97;1799656;78;931543;-85
2020/12/21 02:53:08;;;;;;;9.33;1.93;;;;;;;8.53;100.00;101431.06;1788035;78;933493;-86
2020/12/21 02:55:38;;;;;;;11.83;3.00;;;;;;;8.43;100.00;101421.27;1799589;77;933528;-86
2020/12/21 02:58:08;;;;;;;13.20;2.42;;;;;;;8.57;100.00;101411.45;1787946;77;935722;-85
2020/12/21 03:00:38;;;;;;;12.57;2.40;;;;;;;8.64;100.00;101406.58;1799613;77;935621;-85
2020/12/21 03:03:08;;;;;;;8.73;2.42;;;;;;;8.61;100.00;101403.76;1787919;77;935588;-85
2020/12/21 03:05:38;;;;;;;10.00;2.80;;;;;;;8.59;100.00;101400.42;1799592;78;931400;-85
2020/12/21 03:08:10;;;;;;;7.95;2.12;;;;;;;8.62;100.00;101392.98;1787730;77;935484;-83
2020/12/21 03:10:40;;;;;;;12.07;2.00;;;;;;;8.74;100.00;101378.98;1799581;77;931948;-85
2020/12/21 03:13:10;;;;;;;9.98;2.22;;;;;;;8.70;100.00;101363.98;1787755;77;935467;-85
2020/12/21 03:15:40;;;;;;;10.97;1.90;;;;;;;8.78;100.00;101357.12;1799747;77;931569;-85
2020/12/21 03:18:10;;;;;;;10.40;2.20;;;;;;;8.73;100.00;101353.75;1787810;77;935486;-85
2020/12/21 03:20:39;;;;;;;13.07;2.13;;;;;;;8.80;100.00;101345.25;1799497;79;933843;-85
2020/12/21 03:23:09;;;;;;;10.93;2.40;;;;;;;8.84;100.00;101344.47;1787818;77;935754;-85
2020/12/21 03:25:39;;;;;;;8.27;2.60;;;;;;;8.87;100.00;101342.55;1799693;77;934654;-85
2020/12/21 03:28:16;;;;;;;13.53;1.85;;;;;;;8.86;100.00;101335.88;1787817;77;933433;-86
2020/12/21 03:30:42;;;;;;;10.37;2.13;;;;;;;8.87;100.00;101330.09;1798264;78;934636;-86
2020/12/21 03:33:12;;;;;;;5.83;1.90;;;;;;;8.87;100.00;101323.70;1787785;77;936522;-86
2020/12/21 03:35:42;;;;;;;10.17;2.40;;;;;;;8.83;100.00;101318.41;1799703;77;932359;-86
2020/12/21 03:38:12;;;;;;;9.00;1.77;;;;;;;8.90;100.00;101310.73;1787868;79;936488;-86
2020/12/21 03:40:42;;;;;;;9.37;2.20;;;;;;;8.90;100.00;101310.16;1799746;77;932800;-86
2020/12/21 03:43:11;;;;;;;8.20;1.40;;;;;;;8.90;100.00;101312.13;1787994;78;934666;-86
2020/12/21 03:45:41;;;;;;;7.57;2.00;;;;;;;8.91;100.00;101302.14;1799669;79;932370;-87
2020/12/21 03:48:11;;;;;;;5.80;2.00;;;;;;;8.95;100.00;101302.45;1787931;77;934483;-86
2020/12/21 03:50:41;;;;;;;6.73;2.03;;;;;;;8.89;100.00;101288.28;1799641;77;932719;-87
2020/12/21 03:53:11;;;;;;;7.12;1.42;;;;;;;8.96;100.00;101278.64;1787983;78;934494;-86
2020/12/21 03:55:40;;;;;;;8.80;1.87;;;;;;;8.98;100.00;101272.30;1799698;77;932494;-86
2020/12/21 03:58:10;;;;;;;10.47;1.43;;;;;;;8.97;100.00;101269.23;1787978;77;934458;-86
2020/12/21 04:00:40;;;;;;;8.57;1.93;;;;;;;9.04;100.00;101261.53;1799680;77;934598;-86
2020/12/21 04:03:10;;;;;;;5.77;1.77;;;;;;;9.08;100.00;101260.44;1787966;78;933389;-86
2020/12/21 04:05:40;;;;;;;6.87;1.23;;;;;;;9.04;100.00;101253.22;1799714;78;932666;-86
2020/12/21 04:08:10;;;;;;;6.62;1.20;;;;;;;9.06;100.00;101248.80;1787931;77;934438;-86
2020/12/21 04:10:43;;;;;;;7.73;1.43;;;;;;;9.03;100.00;101236.84;1799669;79;932537;-85
2020/12/21 04:13:11;;;;;;;7.10;1.57;;;;;;;9.10;100.00;101233.31;1787635;79;933614;-84
2020/12/21 04:15:41;;;;;;;6.70;1.20;;;;;;;9.10;100.00;101233.31;1799628;77;932630;-85
2020/12/21 04:18:11;;;;;;;5.92;1.20;;;;;;;9.09;100.00;101225.55;1787962;77;934522;-84
2020/12/21 04:20:41;;;;;;;4.13;1.33;;;;;;;9.07;100.00;101216.66;1799552;77;932380;-85
2020/12/21 04:23:10;;;;;;;4.37;1.40;;;;;;;9.08;100.00;101217.48;1787905;77;935264;-84
2020/12/21 04:25:40;;;;;;;6.73;1.70;;;;;;;9.03;100.00;101212.74;1799633;78;932705;-84
2020/12/21 04:28:10;;;;;;;4.17;1.20;;;;;;;9.10;100.00;101191.20;1787901;78;934471;-85
2020/12/21 04:30:40;;;;;;;7.33;1.47;;;;;;;9.09;100.00;101186.75;1799661;77;932466;-86
2020/12/21 04:33:10;;;;;;;5.10;1.30;;;;;;;9.07;100.00;101180.62;1787889;77;934443;-85
2020/12/21 04:35:40;;;;;;;8.70;1.47;;;;;;;9.13;100.00;101181.50;1799577;78;932578;-83
2020/12/21 04:38:10;;;;;;;10.72;1.60;;;;;;;9.18;100.00;101188.47;1787916;77;934722;-84
2020/12/21 04:40:40;;;;;;;3.30;1.20;;;;;;;9.18;100.00;101182.09;1799635;78;934692;-85
2020/12/21 04:43:11;;;;;;;7.67;1.65;;;;;;;9.11;100.00;101170.67;1787858;77;934627;-84
2020/12/21 04:45:43;;;;;;;6.40;1.30;;;;;;;9.16;100.00;101160.75;1799638;78;932666;-82
2020/12/21 04:48:16;;;;;;;8.73;1.73;;;;;;;9.24;100.00;101153.31;1787836;78;933441;-83
2020/12/21 04:50:45;;;;;;;3.90;1.20;;;;;;;9.20;100.00;101136.94;1799722;78;932799;-82
2020/12/21 04:53:16;;;;;;;6.30;1.40;;;;;;;9.16;100.00;101134.42;1787749;77;934502;-83
2020/12/21 04:55:45;;;;;;;3.87;1.07;;;;;;;9.29;100.00;101133.91;1799693;77;932794;-83
2020/12/21 04:58:17;;;;;;;4.93;1.40;;;;;;;9.32;100.00;101120.37;1787680;78;933903;-82
2020/12/21 05:00:47;;;;;;;8.03;1.90;;;;;;;9.32;100.00;101115.37;1787794;77;934616;-82
2020/12/21 05:03:17;;;;;;;4.63;1.57;;;;;;;9.36;100.00;101108.18;1786210;77;1052600;-83
2020/12/21 05:05:47;;;;;;;9.13;1.53;;;;;;;9.34;100.00;101099.29;1799487;77;934684;-83
2020/12/21 05:08:18;;;;;;;7.47;1.53;;;;;;;9.37;100.00;101098.19;1787785;77;933692;-83
2020/12/21 05:10:57;;;;;;;6.10;1.43;;;;;;;9.32;100.00;101088.48;1799663;78;932569;-83
2020/12/21 05:13:28;;;;;;;6.67;1.87;;;;;;;9.31;100.00;101082.66;1799621;78;934871;-83
2020/12/21 05:16:00;;;;;;;7.42;1.67;;;;;;;9.32;100.00;101071.86;1787775;78;934688;-82
2020/12/21 05:18:31;;;;;;;8.70;1.83;;;;;;;9.32;100.00;101067.70;1799484;79;934492;-84
2020/12/21 05:21:02;;;;;;;7.87;1.70;;;;;;;9.37;100.00;101060.77;1787882;78;934394;-83
2020/12/21 05:23:33;;;;;;;8.73;1.67;;;;;;;9.40;100.00;101052.47;1799587;77;934624;-83
2020/12/21 05:26:05;;;;;;;4.40;1.35;;;;;;;9.44;100.00;101041.11;1787669;77;934611;-82
2020/12/21 05:28:37;;;;;;;6.73;1.50;;;;;;;9.41;100.00;101043.05;1799513;78;934562;-83
2020/12/21 05:31:08;;;;;;;9.25;1.65;;;;;;;9.45;100.00;101029.77;1787941;78;934637;-83
2020/12/21 05:33:43;;;;;;;6.17;1.37;;;;;;;9.47;100.00;101013.67;1799580;78;932536;-83
2020/12/21 05:36:14;;;;;;;4.90;1.57;;;;;;;9.52;100.00;101008.14;1787829;78;934577;-84
2020/12/21 05:38:46;;;;;;;4.20;1.40;;;;;;;9.54;100.00;101009.27;1799593;78;932468;-84
2020/12/21 05:41:19;;;;;;;5.10;1.63;;;;;;;9.58;100.00;101004.25;1787870;78;934604;-84
2020/12/21 05:43:50;;;;;;;6.67;1.53;;;;;;;9.58;100.00;100991.77;1799658;77;932549;-84
2020/12/21 05:46:22;;;;;;;4.43;1.27;;;;;;;9.58;100.00;100989.58;1799574;78;933568;-84
2020/12/21 05:48:54;;;;;;;3.13;1.30;;;;;;;9.60;100.00;100984.02;1799659;77;932525;-85
2020/12/21 05:51:26;;;;;;;5.60;1.40;;;;;;;9.60;100.00;100978.48;1799642;77;934491;-84
2020/12/21 05:53:58;;;;;;;4.03;1.17;;;;;;;9.57;100.00;100962.40;1787806;78;934609;-84
2020/12/21 05:56:29;;;;;;;1.80;0.90;;;;;;;9.62;100.00;100962.95;1799578;77;933496;-84
2020/12/21 05:58:59;;;;;;;4.40;1.23;;;;;;;9.65;100.00;100949.92;1787847;78;933581;-84
2020/12/21 06:01:29;;;;;;;3.80;1.27;;;;;;;9.67;100.00;100939.36;1799494;77;934556;-83
2020/12/21 06:04:02;;;;;;;4.03;1.12;;;;;;;9.69;100.00;100933.00;1787597;78;934525;-82
2020/12/21 06:06:35;;;;;;;3.63;1.17;;;;;;;9.70;100.00;100931.89;1799567;78;934426;-83
2020/12/21 06:09:06;;;;;;;3.73;1.20;;;;;;;9.67;100.00;100922.72;1787810;77;934493;-83
2020/12/21 06:11:39;;;;;;;3.43;1.23;;;;;;;9.70;100.00;100925.52;1799613;77;934475;-83
2020/12/21 06:14:10;;;;;;;3.72;0.85;;;;;;;9.75;100.00;100919.97;1787929;78;934491;-82
2020/12/21 06:16:41;;;;;;;3.67;0.90;;;;;;;9.74;100.00;100907.20;1799620;77;932736;-83
2020/12/21 06:19:12;;;;;;;3.80;0.90;;;;;;;9.76;100.00;100896.09;1787895;77;934428;-82
2020/12/21 06:21:45;;;;;;;4.90;1.00;;;;;;;9.82;100.00;100888.61;1799464;78;932628;-82
2020/12/21 06:24:18;;;;;;;3.10;0.90;;;;;;;9.76;100.00;100870.30;1787126;77;934473;-83
2020/12/21 06:26:49;;;;;;;3.77;0.90;;;;;;;9.82;100.00;100863.09;1799525;77;932480;-83
2020/12/21 06:29:21;;;;;;;2.43;1.00;;;;;;;9.83;100.00;100860.59;1799516;77;934521;-82
2020/12/21 06:31:52;;;;;;;6.87;1.10;;;;;;;9.90;100.00;100852.80;1799577;77;932601;-84
2020/12/21 06:34:33;;;;;;;2.27;1.20;;;;;;;9.89;100.00;100838.65;1799582;78;934528;-83
2020/12/21 06:37:04;;;;;;;4.85;1.27;;;;;;;9.89;100.00;100839.20;1787719;78;934661;-84
2020/12/21 06:39:35;;;;;;;2.58;1.27;;;;;;;9.91;100.00;100834.22;1799383;79;934582;-83
2020/12/21 06:42:10;;;;;;;3.80;1.50;;;;;;;9.92;100.00;100836.72;1787799;78;934499;-83
2020/12/21 06:44:41;;;;;;;4.77;1.30;;;;;;;9.96;100.00;100823.95;1799630;78;932658;-83
2020/12/21 06:47:12;;;;;;;3.67;1.25;;;;;;;9.94;100.00;100806.73;1787785;78;934479;-83
2020/12/21 06:49:42;;;;;;;4.50;1.33;;;;;;;9.98;100.00;100810.60;1799547;79;932646;-81
2020/12/21 06:52:12;;;;;;;2.90;1.50;;;;;;;10.03;100.00;100812.53;1787741;77;934572;-81
2020/12/21 06:54:43;;;;;;;3.93;1.37;;;;;;;10.05;100.00;100807.55;1799521;78;934665;-80
2020/12/21 06:57:13;;;;;;;2.73;1.20;;;;;;;10.08;100.00;100806.97;1787631;77;936559;-82
2020/12/21 06:59:43;;;;;;;5.83;1.60;;;;;;;10.13;100.00;100804.73;1799441;79;934655;-81
2020/12/21 07:02:15;;;;;;;3.83;1.57;;;;;;;10.13;100.00;100795.86;1787675;78;936854;-82
2020/12/21 07:04:44;;;;;;;4.17;1.30;;;;;;;10.19;100.00;100789.73;1799439;77;934793;-83
2020/12/21 07:07:14;;;;;;;4.37;1.40;;;;;;;10.12;100.00;100786.41;1787673;77;936760;-82
2020/12/21 07:09:44;;;;;;;3.40;1.10;;;;;;;10.15;100.00;100771.96;1799509;77;934911;-85
2020/12/21 07:12:14;;;;;;;2.83;1.30;;;;;;;10.22;100.00;100765.05;1787611;78;936588;-81
2020/12/21 07:14:44;;;;;;;2.77;1.40;;;;;;;10.24;100.00;100768.91;1799502;77;935204;-82
2020/12/21 07:17:15;;;;;;;3.27;1.47;;;;;;;10.25;100.00;100756.13;1787603;77;936649;-82
2020/12/21 07:19:47;;;;;;;6.53;1.50;;;;;;;10.26;100.00;100743.09;1799456;77;934779;-82
2020/12/21 07:22:17;;;;;;;1.20;0.70;;;;;;;10.30;100.00;100740.02;1787612;78;936668;-83
2020/12/21 07:24:46;;;;;;;2.87;0.97;;;;;;;10.38;100.00;100753.29;1799487;77;934846;-84
2020/12/21 07:27:16;;;;;;;3.03;1.00;;;;;;;10.43;100.00;100743.55;1787673;77;936524;-83
2020/12/21 07:29:46;;;;;;;2.70;0.63;;;;;;;10.45;100.00;100737.12;1799520;78;934712;-83
2020/12/21 07:32:16;;;;;;;1.43;0.80;;;;;;;10.51;100.00;100734.61;1787617;78;936797;-83
2020/12/21 07:34:49;;;;;;;1.40;0.60;;;;;;;10.56;100.00;100729.58;1799568;78;934887;-84
2020/12/21 07:37:19;;;;;;;1.50;0.70;;;;;;;10.58;100.00;100730.10;1798809;78;936562;-85
2020/12/21 07:39:51;;;;;;;1.63;0.60;;;;;;;10.58;100.00;100717.61;1799753;78;934910;-85
2020/12/21 07:42:23;;;;;;;0.93;0.60;;;;;;;10.65;100.00;100713.97;1799568;78;936574;-83
2020/12/21 07:44:58;;;;;;;3.13;0.87;;;;;;;10.68;100.00;100715.59;1787916;78;936629;-83
2020/12/21 07:47:29;;;;;;;1.17;0.62;;;;;;;10.66;100.00;100711.44;1799199;78;936648;-84
2020/12/21 07:50:00;;;;;;;1.60;0.50;;;;;;;10.67;100.00;100706.98;1787772;77;936554;-84
2020/12/21 07:52:30;;;;;;;2.87;0.70;;;;;;;10.71;100.00;100691.40;1799675;77;936525;-84
2020/12/21 07:55:02;;;;;;;1.42;0.70;;;;;;;10.72;100.00;100686.12;1787719;77;941536;-85
2020/12/21 07:57:32;;;;;;;2.33;0.70;;;;;;;10.72;100.00;100690.29;1799624;79;936751;-85
2020/12/21 08:00:04;;;;;;;1.37;0.70;;;;;;;10.73;100.00;100686.40;1787898;78;936570;-84
2020/12/21 08:02:34;;;;;;;2.43;0.70;;;;;;;10.73;100.00;100682.23;1799708;78;936798;-84
2020/12/21 08:05:04;;;;;;;1.60;0.60;;;;;;;10.71;100.00;100679.45;1788082;77;936564;-84
2020/12/21 08:07:34;;;;;;;1.30;0.60;;;;;;;10.74;100.00;100674.14;1799747;77;936787;-85
2020/12/21 08:10:04;;;;;;;1.47;1.20;;;;;;;10.78;100.00;100671.05;1787860;77;936873;-83
2020/12/21 08:12:34;;;;;;;1.73;0.70;;;;;;;10.75;100.00;100661.91;1799765;78;936623;-86
2020/12/21 08:15:07;;;;;;;2.75;0.60;;;;;;;10.76;100.00;100658.02;1787803;77;937727;-85
2020/12/21 08:17:37;;;;;;;2.83;1.00;;;;;;;10.75;100.00;100654.97;1799603;77;936587;-85
2020/12/21 08:20:08;;;;;;;1.90;0.68;;;;;;;10.77;100.00;100654.69;1787947;79;936984;-84
2020/12/21 08:22:39;;;;;;;2.03;0.87;;;;;;;10.79;100.00;100656.60;1799723;77;934740;-85
2020/12/21 08:25:10;;;;;;;2.45;0.70;;;;;;;10.78;100.00;100653.58;1787940;77;936722;-85
2020/12/21 08:27:41;;;;;;;1.47;1.00;;;;;;;10.83;100.00;100648.78;1799615;78;934682;-84
2020/12/21 08:30:14;;;;;;;2.97;0.70;;;;;;;10.80;100.00;100649.38;1787817;77;936664;-86
2020/12/21 08:32:44;;;;;;;1.23;0.60;;;;;;;10.80;100.00;100642.98;1799664;78;934904;-86
2020/12/21 08:35:14;;;;;;;1.13;0.60;;;;;;;10.81;100.00;100634.37;1787859;77;936799;-85
2020/12/21 08:37:44;;;;;;;2.57;0.80;;;;;;;10.84;100.00;100625.44;1799700;77;934771;-82
2020/12/21 08:40:15;;;;;;;2.40;0.70;;;;;;;10.82;100.00;100610.20;1787843;77;936775;-84
2020/12/21 08:42:47;;;;;;;2.63;0.80;;;;;;;10.87;100.00;100610.95;1799695;77;934980;-83
2020/12/21 08:45:22;;;;;;;0.57;0.50;;;;;;;10.87;100.00;100616.51;1787715;78;936767;-83
2020/12/21 08:47:52;;;;;;;4.13;0.80;;;;;;;10.88;100.00;100609.01;1799601;78;934798;-83
2020/12/21 08:50:21;;;;;;;1.13;0.70;;;;;;;10.94;100.00;100607.29;1799538;78;936785;-83
2020/12/21 08:52:51;;;;;;;2.97;0.70;;;;;;;10.92;100.00;100608.12;1799575;78;934859;-83
2020/12/21 08:55:21;;;;;;;1.33;0.70;;;;;;;10.94;100.00;100605.90;1799656;77;936707;-85
2020/12/21 08:57:51;;;;;;;1.40;0.80;;;;;;;10.93;100.00;100594.52;1799651;77;934769;-87
2020/12/21 09:00:21;;;;;;;2.77;0.50;;;;;;;10.93;100.00;100591.73;1799563;77;936585;-84
2020/12/21 09:02:51;;;;;;;2.07;0.80;;;;;;;10.98;100.00;100588.07;1799656;78;934709;-82
2020/12/21 09:05:20;;;;;;;4.93;0.90;;;;;;;11.00;100.00;100565.52;1799566;78;936599;-83
2020/12/21 09:07:50;;;;;;;2.63;0.60;;;;;;;11.03;100.00;100560.23;1799571;78;935100;-83
2020/12/21 09:10:20;;;;;;;5.63;0.80;;;;;;;11.06;100.00;100556.02;1799673;79;936971;-85
2020/12/21 09:12:50;;;;;;;4.43;0.93;;;;;;;11.08;100.00;100555.17;1799737;77;934628;-84
2020/12/21 09:15:20;;;;;;;2.10;0.98;;;;;;;11.09;100.00;100550.69;1799667;77;936647;-86
2020/12/21 09:17:50;;;;;;;2.13;0.90;;;;;;;11.11;100.00;100551.23;1799680;78;934963;-82
2020/12/21 09:20:20;;;;;;;4.80;1.20;;;;;;;11.18;100.00;100546.70;1799642;77;936730;-82
2020/12/21 09:22:49;;;;;;;1.23;0.60;;;;;;;11.15;100.00;100537.01;1799604;78;934908;-83
2020/12/21 09:25:19;;;;;;;2.37;0.80;;;;;;;11.21;100.00;100544.14;1799520;78;936636;-83
2020/12/21 09:27:51;;;;;;;1.77;0.50;;;;;;;11.26;100.00;100537.13;1799440;78;934971;-84
2020/12/21 09:30:21;;;;;;;2.77;0.60;;;;;;;11.29;100.00;100539.91;1799540;78;936578;-85
2020/12/21 09:32:51;;;;;;;1.63;0.70;;;;;;;11.30;100.00;100534.02;1799528;78;934757;-82
2020/12/21 09:35:21;;;;;;;2.60;0.70;;;;;;;11.30;100.00;100527.07;1799460;77;935397;-81
2020/12/21 09:37:51;;;;;;;1.50;0.50;;;;;;;11.32;100.00;100532.34;1799515;77;934586;-85
2020/12/21 09:40:21;;;;;;;1.63;0.90;;;;;;;11.31;100.00;100527.91;1799556;77;936797;-84
2020/12/21 09:42:51;;;;;;;2.00;0.70;;;;;;;11.31;100.00;100532.91;1799564;77;934622;-84
2020/12/21 09:45:21;;;;;;;1.70;0.57;;;;;;;11.36;100.00;100532.02;1799615;77;936826;-84
2020/12/21 09:47:50;;;;;;;0.83;0.50;;;;;;;11.42;100.00;100542.76;1799556;78;934761;-84
2020/12/21 09:50:20;;;;;;;1.10;0.50;;;;;;;11.41;100.00;100540.30;1799526;78;936820;-84
2020/12/21 09:52:50;;;;;;;3.00;0.70;;;;;;;11.45;100.00;100528.00;1799504;77;935036;-84
2020/12/21 09:55:20;;;;;;;1.63;0.50;;;;;;;11.46;100.00;100519.94;1799645;77;936849;-84
2020/12/21 09:57:50;;;;;;;1.27;0.90;;;;;;;11.48;100.00;100519.05;1799595;77;934764;-84
2020/12/21 10:00:20;;;;;;;1.07;0.70;;;;;;;11.48;100.00;100519.05;1799503;77;936596;-84
2020/12/21 10:02:49;;;;;;;1.33;0.90;;;;;;;11.56;100.00;100512.81;1799472;77;934680;-84
2020/12/21 10:05:19;;;;;;;1.17;0.60;;;;;;;11.55;100.00;100501.45;1799432;79;936524;-84
2020/12/21 10:07:49;;;;;;;1.27;0.57;;;;;;;11.59;100.00;100503.34;1799558;77;934983;-84
2020/12/21 10:10:19;;;;;;;3.60;0.60;;;;;;;11.61;100.00;100509.41;1799667;77;936583;-84
2020/12/21 10:12:50;;;;;;;0.60;0.43;;;;;;;11.68;100.00;100504.87;1799517;77;934959;-84
2020/12/21 10:15:20;;;;;;;1.03;0.50;;;;;;;11.69;100.00;100492.59;1799544;78;935479;-84
2020/12/21 10:17:50;;;;;;;2.30;0.90;;;;;;;11.70;100.00;100485.35;1799592;79;934722;-84
2020/12/21 10:20:19;;;;;;;3.63;1.10;;;;;;;11.70;100.00;100488.13;1799509;77;935539;-84
2020/12/21 10:22:49;;;;;;;1.53;0.50;;;;;;;11.78;100.00;100488.04;1799580;77;934954;-83
2020/12/21 10:25:19;;;;;;;1.33;0.43;;;;;;;11.82;100.00;100484.91;1799645;77;936595;-84
2020/12/21 10:27:50;;;;;;;0.97;0.60;;;;;;;11.89;100.00;100492.89;1799546;78;935218;-84
2020/12/21 10:30:20;;;;;;;1.07;0.50;;;;;;;11.92;100.00;100490.89;1799464;78;936660;-84
2020/12/21 10:32:50;;;;;;;1.03;0.50;;;;;;;11.96;100.00;100496.94;1799544;77;934651;-85
2020/12/21 10:35:21;;;;;;;0.80;0.40;;;;;;;11.98;100.00;100481.34;1799468;77;936506;-86
2020/12/21 10:37:51;;;;;;;1.53;0.70;;;;;;;12.00;100.00;100479.89;1799525;78;934682;-84
2020/12/21 10:40:21;;;;;;;2.33;1.53;;;;;;;12.07;100.00;100477.53;1799518;78;936573;-84
2020/12/21 10:42:51;;;;;;;1.93;0.67;;;;;;;12.05;100.00;100470.63;1799582;77;934718;-83
2020/12/21 10:45:21;;;;;;;2.03;0.70;;;;;;;12.09;100.00;100478.08;1799504;77;936508;-84
2020/12/21 10:47:51;;;;;;;1.60;1.00;;;;;;;12.15;100.00;100475.45;1799461;78;934633;-81
2020/12/21 10:50:21;;;;;;;1.50;0.60;;;;;;;12.17;100.00;100484.89;1799545;77;936713;-81
2020/12/21 10:52:50;;;;;;;2.90;0.70;;;;;;;12.24;100.00;100488.11;1799556;78;934509;-81
2020/12/21 10:55:20;;;;;;;1.23;0.60;;;;;;;12.26;100.00;100477.50;1799498;77;936580;-83
2020/12/21 10:57:50;;;;;;;1.97;1.00;;;;;;;12.27;100.00;100479.98;1799645;77;934774;-83
2020/12/21 11:00:24;;;;;;;2.03;0.70;;;;;;;12.32;100.00;100474.90;1799571;78;936950;-81
2020/12/21 11:02:51;;;;;;;1.20;0.90;;;;;;;12.37;100.00;100473.95;1799252;77;934593;-83
2020/12/21 11:05:21;;;;;;;1.20;0.70;;;;;;;12.42;100.00;100476.09;1799584;78;936748;-83
2020/12/21 11:07:51;;;;;;;1.43;0.80;;;;;;;12.44;100.00;100475.80;1799490;78;934700;-81
2020/12/21 11:10:21;;;;;;;2.03;0.77;;;;;;;12.45;100.00;100478.25;1799511;77;936557;-83
2020/12/21 11:12:51;;;;;;;1.72;0.80;;;;;;;12.55;100.00;100475.28;1799546;78;934675;-83
2020/12/21 11:15:21;;;;;;;1.10;1.00;;;;;;;12.64;100.00;100458.68;1799602;78;936634;-83
2020/12/21 11:17:51;;;;;;;1.57;1.30;;;;;;;12.64;100.00;100458.68;1799580;77;934635;-83
2020/12/21 11:20:20;;;;;;;1.90;1.30;;;;;;;12.66;100.00;100459.21;1799611;77;935432;-83
2020/12/21 11:22:50;;;;;;;2.53;1.77;;;;;;;12.71;100.00;100461.88;1799588;78;934543;-83
2020/12/21 11:25:20;;;;;;;2.53;1.93;;;;;;;12.80;100.00;100451.66;1799670;77;936670;-83